createdAt,value
2023-01-18T00:00:54.296Z,93491.22
2023-01-18T00:03:23.404Z,93487.88
2023-01-18T00:05:53.951Z,93478.72
2023-01-18T00:08:22.049Z,93478.66
2023-01-18T00:10:52.660Z,93469.84
2023-01-18T00:13:24.944Z,93478.00
2023-01-18T00:15:54.519Z,93472.78
2023-01-18T00:18:22.414Z,93462.28
2023-01-18T00:20:54.158Z,93472.59
2023-01-18T00:23:22.279Z,93476.72
2023-01-18T00:25:52.052Z,93467.78
2023-01-18T00:28:24.998Z,93478.84
2023-01-18T00:30:57.630Z,93482.91
2023-01-18T00:33:25.830Z,93470.19
2023-01-18T00:35:57.892Z,93473.22
2023-01-18T00:38:26.324Z,93473.00
2023-01-18T00:40:57.007Z,93479.25
2023-01-18T00:43:43.498Z,93467.13
2023-01-18T00:46:14.684Z,93483.78
2023-01-18T00:48:44.513Z,93485.19
2023-01-18T00:51:14.351Z,93471.38
2023-01-18T00:53:44.306Z,93456.53
2023-01-18T00:56:13.671Z,93491.53
2023-01-18T00:58:42.593Z,93453.44
2023-01-18T01:01:10.971Z,93451.31
2023-01-18T01:03:59.577Z,93457.56
2023-01-18T01:06:47.867Z,93478.63
2023-01-18T01:09:21.088Z,93487.06
2023-01-18T01:12:12.958Z,93493.59
2023-01-18T01:15:00.801Z,93490.50
2023-01-18T01:17:48.644Z,93495.28
2023-01-18T01:20:35.762Z,93444.47
2023-01-18T01:23:27.566Z,93505.47
2023-01-18T01:26:11.147Z,93505.41
2023-01-18T01:28:44.005Z,93501.25
2023-01-18T01:31:13.979Z,93511.50
2023-01-18T01:33:42.428Z,93490.66
2023-01-18T01:36:13.662Z,93509.63
2023-01-18T01:38:43.090Z,93509.63
2023-01-18T01:41:17.073Z,93473.88
2023-01-18T01:43:46.460Z,93519.28
2023-01-18T01:46:22.404Z,93515.94
2023-01-18T01:48:50.403Z,93481.38
2023-01-18T01:51:20.765Z,93515.09
2023-01-18T01:53:51.443Z,93519.59
2023-01-18T01:56:20.049Z,93517.88
2023-01-18T01:58:55.961Z,93525.53
2023-01-18T02:01:23.854Z,93527.66
2023-01-18T02:03:52.109Z,93528.25
2023-01-18T02:06:31.425Z,93529.34
2023-01-18T02:09:00.835Z,93535.53
2023-01-18T02:11:29.877Z,93527.84
2023-01-18T02:13:59.333Z,93524.81
2023-01-18T02:16:38.731Z,93533.31
2023-01-18T02:19:25.023Z,93545.31
2023-01-18T02:21:58.271Z,93516.31
2023-01-18T02:25:05.350Z,93542.44
2023-01-18T02:27:43.740Z,93536.63
2023-01-18T02:30:26.418Z,93549.34
2023-01-18T02:33:07.325Z,93564.84
2023-01-18T02:35:44.261Z,93542.72
2023-01-18T02:38:14.882Z,93564.78
2023-01-18T02:40:51.396Z,93569.38
2023-01-18T02:43:37.513Z,93563.34
2023-01-18T02:46:33.740Z,93566.66
2023-01-18T02:49:08.565Z,93520.81
2023-01-18T02:51:38.791Z,93572.47
2023-01-18T02:54:09.810Z,93530.44
2023-01-18T02:56:40.608Z,93576.16
2023-01-18T02:59:11.321Z,93523.44
2023-01-18T03:01:42.782Z,93573.53
2023-01-18T03:04:13.494Z,93588.66
2023-01-18T03:06:46.099Z,93547.88
2023-01-18T03:09:21.215Z,93579.75
2023-01-18T03:11:58.267Z,93573.44
2023-01-18T03:14:40.690Z,93579.06
2023-01-18T03:17:18.780Z,93586.16
2023-01-18T03:20:06.725Z,93533.66
2023-01-18T03:22:56.041Z,93601.00
2023-01-18T03:25:27.210Z,93615.00
2023-01-18T03:28:14.362Z,93597.53
2023-01-18T03:31:00.679Z,93592.38
2023-01-18T03:33:49.784Z,93576.13
2023-01-18T03:36:21.370Z,93599.53
2023-01-18T03:38:53.458Z,93597.91
2023-01-18T03:41:24.593Z,93579.63
2023-01-18T03:44:03.040Z,93602.63
2023-01-18T03:46:34.302Z,93604.69
2023-01-18T03:49:03.842Z,93601.16
2023-01-18T03:51:47.241Z,93623.59
2023-01-18T03:54:26.691Z,93612.94
2023-01-18T03:56:59.819Z,93632.22
2023-01-18T03:59:31.560Z,93636.94
2023-01-18T04:02:00.702Z,93612.56
2023-01-18T04:04:32.010Z,93626.19
2023-01-18T04:07:14.444Z,93611.38
2023-01-18T04:09:42.274Z,93689.84
2023-01-18T04:12:10.831Z,93647.97
2023-01-18T04:14:38.933Z,93537.50
2023-01-18T04:17:07.104Z,93657.00
2023-01-18T04:19:40.156Z,93665.16
2023-01-18T04:22:09.856Z,93670.44
2023-01-18T04:24:41.135Z,93665.03
2023-01-18T04:27:09.137Z,93674.78
2023-01-18T04:29:37.054Z,93659.28
2023-01-18T04:32:08.543Z,93678.78
2023-01-18T04:34:42.149Z,93678.28
2023-01-18T04:37:10.673Z,93193.81
2023-01-18T04:39:38.726Z,93465.00
2023-01-18T04:42:06.920Z,93687.28
2023-01-18T04:44:34.872Z,93688.88
2023-01-18T04:47:07.815Z,93693.47
2023-01-18T04:49:38.044Z,93678.34
2023-01-18T04:52:07.197Z,93659.69
2023-01-18T04:54:35.147Z,93697.19
2023-01-18T04:57:06.144Z,93686.47
2023-01-18T04:59:39.219Z,93701.97
2023-01-18T05:02:10.118Z,93710.66
2023-01-18T05:04:40.783Z,93722.50
2023-01-18T05:07:09.199Z,93715.03
2023-01-18T05:09:42.581Z,93729.03
2023-01-18T05:12:10.900Z,93740.34
2023-01-18T05:14:38.799Z,93744.78
2023-01-18T05:17:07.391Z,93694.88
2023-01-18T05:19:37.079Z,93751.56
2023-01-18T05:22:06.666Z,93755.97
2023-01-18T05:24:37.259Z,93762.38
2023-01-18T05:27:06.063Z,93764.88
2023-01-18T05:29:34.047Z,93752.34
2023-01-18T05:32:06.620Z,93725.84
2023-01-18T05:34:40.377Z,93786.59
2023-01-18T05:37:12.271Z,93792.94
2023-01-18T05:40:04.844Z,93767.66
2023-01-18T05:42:33.119Z,93762.91
2023-01-18T05:45:03.575Z,93772.47
2023-01-18T05:47:38.995Z,93807.66
2023-01-18T05:50:09.031Z,93789.78
2023-01-18T05:52:40.401Z,93806.63
2023-01-18T05:55:09.247Z,93813.31
2023-01-18T05:57:48.772Z,93827.84
2023-01-18T06:00:17.039Z,93824.28
2023-01-18T06:02:46.861Z,93842.97
2023-01-18T06:05:16.710Z,93849.44
2023-01-18T06:07:50.211Z,93815.84
2023-01-18T06:10:18.960Z,93865.38
2023-01-18T06:12:46.892Z,93870.97
2023-01-18T06:15:15.714Z,93852.44
2023-01-18T06:17:45.489Z,93889.63
2023-01-18T06:20:14.545Z,93896.44
2023-01-18T06:22:45.648Z,93899.53
2023-01-18T06:25:15.023Z,93897.56
2023-01-18T06:27:43.919Z,93913.91
2023-01-18T06:30:13.328Z,93968.28
2023-01-18T06:32:45.084Z,93905.06
2023-01-18T06:35:13.130Z,93925.63
2023-01-18T06:37:45.446Z,93752.00
2023-01-18T06:40:19.097Z,93931.59
2023-01-18T06:42:50.175Z,93892.34
2023-01-18T06:45:21.977Z,93935.00
2023-01-18T06:47:50.518Z,93888.72
2023-01-18T06:50:18.732Z,93910.50
2023-01-18T06:52:46.901Z,93952.41
2023-01-18T06:55:17.293Z,93957.84
2023-01-18T06:57:45.174Z,93961.00
2023-01-18T07:00:17.802Z,93968.81
2023-01-18T07:02:45.856Z,93965.16
2023-01-18T07:05:13.814Z,93933.44
2023-01-18T07:07:43.321Z,93967.72
2023-01-18T07:10:16.387Z,93967.63
2023-01-18T07:12:49.050Z,93971.91
2023-01-18T07:15:22.564Z,93904.81
2023-01-18T07:17:51.826Z,93993.22
2023-01-18T07:20:20.639Z,93953.97
2023-01-18T07:22:52.187Z,93935.41
2023-01-18T07:25:23.104Z,93981.88
2023-01-18T07:27:54.553Z,93996.91
2023-01-18T07:30:22.952Z,94006.59
2023-01-18T07:32:53.994Z,94020.88
2023-01-18T07:35:23.210Z,94087.41
2023-01-18T07:37:52.598Z,94012.22
2023-01-18T07:40:22.177Z,94032.75
2023-01-18T07:42:50.344Z,94032.78
2023-01-18T07:45:21.030Z,94043.44
2023-01-18T07:47:53.308Z,94047.81
2023-01-18T07:50:22.608Z,94034.28
2023-01-18T07:52:51.784Z,94065.22
2023-01-18T07:55:23.761Z,94015.50
2023-01-18T07:57:52.556Z,94063.69
2023-01-18T08:00:23.998Z,94029.78
2023-01-18T08:02:52.622Z,94082.66
2023-01-18T08:05:23.909Z,94081.72
2023-01-18T08:07:53.763Z,94048.22
2023-01-18T08:10:28.062Z,93983.84
2023-01-18T08:12:58.777Z,94080.22
2023-01-18T08:15:33.579Z,94086.44
2023-01-18T08:18:03.938Z,94089.03
2023-01-18T08:20:34.101Z,94035.91
2023-01-18T08:23:05.302Z,94091.53
2023-01-18T08:25:33.613Z,94101.03
2023-01-18T08:28:02.828Z,94083.31
2023-01-18T08:30:34.944Z,94114.00
2023-01-18T08:33:08.291Z,94114.03
2023-01-18T08:35:44.693Z,94094.97
2023-01-18T08:38:13.188Z,94100.97
2023-01-18T08:40:45.327Z,94133.31
2023-01-18T08:43:16.134Z,94147.13
2023-01-18T08:45:45.459Z,94144.00
2023-01-18T08:48:14.899Z,94051.44
2023-01-18T08:50:47.298Z,94173.38
2023-01-18T08:53:20.346Z,94178.09
2023-01-18T08:55:49.065Z,94181.06
2023-01-18T08:58:17.065Z,94189.09
2023-01-18T09:00:50.693Z,94193.72
2023-01-18T09:03:21.807Z,94180.41
2023-01-18T09:05:52.713Z,94183.59
2023-01-18T09:08:20.915Z,94176.56
2023-01-18T09:10:53.153Z,94206.78
2023-01-18T09:13:21.329Z,94204.66
2023-01-18T09:16:00.106Z,94200.78
2023-01-18T09:18:30.218Z,94191.69
2023-01-18T09:20:58.574Z,94213.03
2023-01-18T09:23:29.670Z,94211.69
2023-01-18T09:26:05.427Z,94222.16
2023-01-18T09:28:35.298Z,94240.66
2023-01-18T09:31:06.374Z,94234.41
2023-01-18T09:33:53.323Z,94239.09
2023-01-18T09:36:33.175Z,94215.53
2023-01-18T09:39:03.428Z,94256.84
2023-01-18T09:41:33.712Z,94252.34
2023-01-18T09:44:04.680Z,94265.44
2023-01-18T09:46:39.559Z,94242.25
2023-01-18T09:49:19.881Z,94271.34
2023-01-18T09:52:00.017Z,94276.59
2023-01-18T09:54:42.011Z,94286.19
2023-01-18T09:57:17.836Z,94284.19
2023-01-18T09:59:53.716Z,94297.25
2023-01-18T10:02:28.397Z,94291.53
2023-01-18T10:04:59.504Z,94299.56
2023-01-18T10:07:32.784Z,94289.16
2023-01-18T10:10:02.395Z,94220.34
2023-01-18T10:12:39.899Z,94295.44
2023-01-18T10:15:13.468Z,94296.75
2023-01-18T10:17:43.611Z,94271.66
2023-01-18T10:20:16.508Z,94304.25
2023-01-18T10:22:52.196Z,94305.59
2023-01-18T10:25:37.372Z,94309.47
2023-01-18T10:28:25.353Z,94310.44
2023-01-18T10:31:05.426Z,94273.50
2023-01-18T10:33:38.320Z,94292.53
2023-01-18T10:36:12.598Z,94324.59
2023-01-18T10:38:42.051Z,94290.72
2023-01-18T10:41:18.924Z,94325.03
2023-01-18T10:43:47.927Z,94328.28
2023-01-18T10:46:19.043Z,94320.91
2023-01-18T10:48:51.020Z,94330.56
2023-01-18T10:51:32.331Z,94326.50
2023-01-18T10:54:00.445Z,94122.13
2023-01-18T10:56:34.576Z,94333.38
2023-01-18T10:59:06.866Z,94338.56
2023-01-18T11:01:37.285Z,94337.94
2023-01-18T11:04:15.513Z,94342.28
2023-01-18T11:06:47.296Z,94329.00
2023-01-18T11:09:41.660Z,94297.47
2023-01-18T11:12:37.525Z,94346.53
2023-01-18T11:15:28.528Z,94351.50
2023-01-18T11:18:17.700Z,94269.09
2023-01-18T11:20:52.278Z,94364.75
2023-01-18T11:23:23.207Z,94364.81
2023-01-18T11:26:03.532Z,94365.84
2023-01-18T11:28:38.776Z,94355.84
2023-01-18T11:31:12.372Z,94369.47
2023-01-18T11:33:50.142Z,94258.41
2023-01-18T11:36:20.920Z,94377.03
2023-01-18T11:38:49.260Z,94177.91
2023-01-18T11:41:22.579Z,94327.25
2023-01-18T11:44:01.319Z,94377.84
2023-01-18T11:46:36.198Z,94398.97
2023-01-18T11:49:12.755Z,94336.03
2023-01-18T11:51:47.203Z,94395.34
2023-01-18T11:54:28.953Z,94390.63
2023-01-18T11:57:02.698Z,94412.66
2023-01-18T11:59:32.937Z,94391.97
2023-01-18T12:02:24.929Z,94394.41
2023-01-18T12:05:20.795Z,94390.28
2023-01-18T12:08:01.222Z,94364.84
2023-01-18T12:10:39.310Z,94392.09
2023-01-18T12:13:31.983Z,94296.13
2023-01-18T12:16:08.184Z,94398.75
2023-01-18T12:18:55.315Z,94420.38
2023-01-18T12:21:28.985Z,94413.88
2023-01-18T12:24:30.021Z,94470.81
2023-01-18T12:27:00.539Z,94431.84
2023-01-18T12:29:54.784Z,94427.09
2023-01-18T12:32:41.108Z,94430.53
2023-01-18T12:35:29.466Z,94415.97
2023-01-18T12:38:04.921Z,94448.88
2023-01-18T12:40:42.150Z,94448.78
2023-01-18T12:43:23.575Z,94429.78
2023-01-18T12:45:56.608Z,94443.06
2023-01-18T12:48:28.815Z,94442.34
2023-01-18T12:50:57.360Z,94456.44
2023-01-18T12:53:34.370Z,94454.06
2023-01-18T12:56:14.383Z,94382.97
2023-01-18T12:58:45.410Z,94465.56
2023-01-18T13:01:21.941Z,94472.00
2023-01-18T13:03:51.956Z,94477.06
2023-01-18T13:06:20.986Z,94417.28
2023-01-18T13:08:52.602Z,94466.81
2023-01-18T13:11:25.619Z,94468.44
2023-01-18T13:13:57.434Z,94471.84
2023-01-18T13:16:39.456Z,94470.94
2023-01-18T13:19:09.507Z,94479.31
2023-01-18T13:21:48.880Z,94476.44
2023-01-18T13:24:27.141Z,94486.22
2023-01-18T13:27:10.110Z,94496.91
2023-01-18T13:29:41.844Z,94494.53
2023-01-18T13:32:29.704Z,94491.16
2023-01-18T13:35:19.641Z,94497.16
2023-01-18T13:37:55.739Z,94491.66
2023-01-18T13:40:26.227Z,94455.81
2023-01-18T13:42:55.507Z,94515.94
2023-01-18T13:45:30.753Z,94523.56
2023-01-18T13:48:03.385Z,94490.63
2023-01-18T13:50:48.287Z,94543.94
2023-01-18T13:53:31.560Z,94547.34
2023-01-18T13:56:29.692Z,94561.41
2023-01-18T13:59:23.362Z,94563.50
2023-01-18T14:01:52.766Z,94565.34
2023-01-18T14:04:30.331Z,94570.53
2023-01-18T14:07:03.428Z,94533.94
2023-01-18T14:09:45.108Z,94543.31
2023-01-18T14:12:14.858Z,94582.59
2023-01-18T14:14:57.566Z,94581.69
2023-01-18T14:17:27.470Z,94584.63
2023-01-18T14:20:10.901Z,94593.72
2023-01-18T14:22:48.378Z,94594.59
2023-01-18T14:25:53.857Z,94603.75
2023-01-18T14:28:28.089Z,94577.78
2023-01-18T14:30:59.639Z,94530.28
2023-01-18T14:33:30.564Z,94598.03
2023-01-18T14:36:00.065Z,94624.38
2023-01-18T14:38:29.979Z,94614.50
2023-01-18T14:40:59.690Z,94627.69
2023-01-18T14:43:32.562Z,94631.31
2023-01-18T14:46:04.588Z,94611.97
2023-01-18T14:48:34.749Z,94605.00
2023-01-18T14:51:05.014Z,94621.47
2023-01-18T14:53:39.113Z,94627.81
2023-01-18T14:56:10.680Z,94652.13
2023-01-18T14:58:46.294Z,94626.34
2023-01-18T15:01:29.451Z,94651.31
2023-01-18T15:03:59.457Z,94595.50
2023-01-18T15:06:35.646Z,94653.19
2023-01-18T15:09:09.318Z,94638.28
2023-01-18T15:11:40.861Z,94667.28
2023-01-18T15:14:15.662Z,94678.28
2023-01-18T15:16:49.966Z,94690.06
2023-01-18T15:19:20.661Z,94690.84
2023-01-18T15:21:48.716Z,94700.00
2023-01-18T15:24:21.519Z,94691.59
2023-01-18T15:26:53.605Z,94685.94
2023-01-18T15:29:25.130Z,94693.44
2023-01-18T15:32:07.943Z,94681.41
2023-01-18T15:34:37.894Z,94707.03
2023-01-18T15:37:10.039Z,94712.28
2023-01-18T15:39:49.251Z,94707.84
2023-01-18T15:42:19.651Z,94722.75
2023-01-18T15:44:49.967Z,94633.25
2023-01-18T15:47:23.968Z,94728.47
2023-01-18T15:49:53.378Z,94723.25
2023-01-18T15:52:45.570Z,94718.56
2023-01-18T15:55:37.344Z,94727.03
2023-01-18T15:58:11.377Z,94691.81
2023-01-18T16:00:42.139Z,94702.16
2023-01-18T16:03:23.530Z,94504.13
2023-01-18T16:05:58.775Z,94663.63
2023-01-18T16:08:26.924Z,94724.84
2023-01-18T16:10:56.650Z,94747.25
2023-01-18T16:13:39.172Z,94742.84
2023-01-18T16:16:19.833Z,94794.19
2023-01-18T16:19:01.279Z,94744.47
2023-01-18T16:21:40.401Z,94741.09
2023-01-18T16:24:17.591Z,94760.44
2023-01-18T16:26:45.756Z,94771.41
2023-01-18T16:29:14.131Z,94720.16
2023-01-18T16:31:49.115Z,94733.66
2023-01-18T16:34:26.582Z,94745.00
2023-01-18T16:36:57.850Z,94722.75
2023-01-18T16:39:25.687Z,94786.63
2023-01-18T16:41:55.605Z,94778.16
2023-01-18T16:44:23.463Z,94787.19
2023-01-18T16:46:55.377Z,94790.38
2023-01-18T16:49:28.001Z,94755.94
2023-01-18T16:52:01.503Z,94792.81
2023-01-18T16:54:29.369Z,94805.41
2023-01-18T16:56:57.282Z,94795.84
2023-01-18T16:59:25.125Z,94769.16
2023-01-18T17:01:53.210Z,94811.69
2023-01-18T17:04:26.924Z,94761.75
2023-01-18T17:07:01.230Z,94772.91
2023-01-18T17:09:32.507Z,94811.72
2023-01-18T17:12:05.265Z,94826.66
2023-01-18T17:14:33.288Z,94828.47
2023-01-18T17:17:04.088Z,94812.25
2023-01-18T17:19:33.692Z,94835.56
2023-01-18T17:22:01.645Z,94848.34
2023-01-18T17:24:31.949Z,94833.13
2023-01-18T17:26:59.784Z,94845.75
2023-01-18T17:29:27.563Z,94854.69
2023-01-18T17:31:58.034Z,94862.03
2023-01-18T17:34:32.922Z,94852.59
2023-01-18T17:37:06.133Z,94786.63
2023-01-18T17:39:44.174Z,94814.84
2023-01-18T17:42:30.071Z,94791.31
2023-01-18T17:45:06.779Z,94857.81
2023-01-18T17:47:37.352Z,94868.81
2023-01-18T17:50:19.618Z,94809.59
2023-01-18T17:52:49.032Z,94838.56
2023-01-18T17:55:21.525Z,94883.34
2023-01-18T17:57:54.896Z,94866.44
2023-01-18T18:00:23.190Z,94877.88
2023-01-18T18:02:53.419Z,94841.25
2023-01-18T18:05:21.915Z,94903.03
2023-01-18T18:07:53.820Z,94899.97
2023-01-18T18:10:21.689Z,94911.94
2023-01-18T18:12:52.559Z,94935.75
2023-01-18T18:15:22.362Z,94925.09
2023-01-18T18:17:51.567Z,94923.16
2023-01-18T18:20:23.028Z,94914.03
2023-01-18T18:22:52.517Z,94936.84
2023-01-18T18:25:20.698Z,94946.59
2023-01-18T18:27:51.695Z,94949.94
2023-01-18T18:30:19.779Z,94950.41
2023-01-18T18:32:48.967Z,94950.84
2023-01-18T18:35:25.469Z,94955.81
2023-01-18T18:37:57.114Z,94971.56
2023-01-18T18:40:25.484Z,94967.75
2023-01-18T18:43:01.713Z,94941.13
2023-01-18T18:45:31.445Z,94929.00
2023-01-18T18:47:59.645Z,94968.75
2023-01-18T18:50:27.817Z,94982.03
2023-01-18T18:53:00.599Z,94956.75
2023-01-18T18:55:30.653Z,94987.16
2023-01-18T18:58:00.872Z,94989.63
2023-01-18T19:00:30.817Z,94981.28
2023-01-18T19:03:00.915Z,94802.72
2023-01-18T19:05:31.684Z,94992.53
2023-01-18T19:08:05.149Z,95003.41
2023-01-18T19:10:40.341Z,95016.59
2023-01-18T19:13:08.283Z,94982.19
2023-01-18T19:15:36.257Z,95020.28
2023-01-18T19:18:04.223Z,95018.22
2023-01-18T19:20:35.283Z,94964.59
2023-01-18T19:23:05.885Z,95032.91
2023-01-18T19:25:33.980Z,95036.69
2023-01-18T19:28:01.870Z,95025.50
2023-01-18T19:30:33.356Z,95018.28
2023-01-18T19:33:02.784Z,95040.50
2023-01-18T19:35:31.268Z,95043.75
2023-01-18T19:38:02.256Z,95024.69
2023-01-18T19:40:31.564Z,95050.00
2023-01-18T19:43:02.187Z,95046.19
2023-01-18T19:45:32.061Z,94999.50
2023-01-18T19:48:05.163Z,95051.13
2023-01-18T19:50:33.111Z,95049.34
2023-01-18T19:53:05.925Z,95059.75
2023-01-18T19:55:38.902Z,95054.25
2023-01-18T19:58:08.007Z,95052.28
2023-01-18T20:00:41.980Z,94973.94
2023-01-18T20:03:14.205Z,95024.09
2023-01-18T20:05:44.419Z,95074.38
2023-01-18T20:08:16.664Z,95068.72
2023-01-18T20:10:46.243Z,95083.97
2023-01-18T20:13:14.646Z,95073.53
2023-01-18T20:15:45.832Z,95089.38
2023-01-18T20:18:13.930Z,95086.22
2023-01-18T20:20:44.740Z,95085.69
2023-01-18T20:23:15.509Z,95099.44
2023-01-18T20:25:44.496Z,95108.75
2023-01-18T20:28:14.083Z,95040.84
2023-01-18T20:30:51.674Z,95042.97
2023-01-18T20:33:20.079Z,95106.44
2023-01-18T20:35:48.187Z,95117.56
2023-01-18T20:38:20.356Z,95114.69
2023-01-18T20:40:51.808Z,95094.91
2023-01-18T20:43:24.168Z,95122.06
2023-01-18T20:46:05.589Z,95118.69
2023-01-18T20:48:33.963Z,95120.06
2023-01-18T20:51:02.447Z,95102.06
2023-01-18T20:53:32.570Z,95109.16
2023-01-18T20:56:03.497Z,95137.06
2023-01-18T20:58:32.860Z,95128.47
2023-01-18T21:01:06.026Z,95136.25
2023-01-18T21:03:33.951Z,95142.34
2023-01-18T21:06:02.797Z,95146.53
2023-01-18T21:08:30.760Z,95148.34
2023-01-18T21:10:58.760Z,95152.56
2023-01-18T21:13:26.800Z,95159.88
2023-01-18T21:15:59.991Z,95162.25
2023-01-18T21:18:37.185Z,95144.63
2023-01-18T21:21:10.791Z,95162.44
2023-01-18T21:23:39.764Z,95165.78
2023-01-18T21:26:08.717Z,95161.59
2023-01-18T21:28:36.895Z,95172.19
2023-01-18T21:31:10.029Z,95166.50
2023-01-18T21:33:38.735Z,95143.00
2023-01-18T21:36:12.259Z,95173.19
2023-01-18T21:38:41.374Z,95171.16
2023-01-18T21:41:26.516Z,95166.41
2023-01-18T21:44:12.767Z,95173.38
2023-01-18T21:46:52.435Z,95169.19
2023-01-18T21:50:11.315Z,95177.63
2023-01-18T21:52:51.938Z,95182.47
2023-01-18T21:55:20.171Z,95193.28
2023-01-18T21:58:10.459Z,95183.97
2023-01-18T22:00:39.100Z,95189.47
2023-01-18T22:03:10.858Z,95192.38
2023-01-18T22:05:40.892Z,95183.75
2023-01-18T22:08:13.033Z,95093.56
2023-01-18T22:10:43.420Z,95208.31
2023-01-18T22:13:11.433Z,94918.25
2023-01-18T22:15:43.438Z,95210.00
2023-01-18T22:18:13.017Z,95214.31
2023-01-18T22:20:40.983Z,95210.28
2023-01-18T22:23:09.685Z,95144.69
2023-01-18T22:25:43.762Z,95215.78
2023-01-18T22:28:11.675Z,95198.44
2023-01-18T22:30:42.076Z,95231.25
2023-01-18T22:33:09.976Z,95226.53
2023-01-18T22:35:41.262Z,95230.03
2023-01-18T22:38:14.849Z,95237.31
2023-01-18T22:40:42.867Z,95241.59
2023-01-18T22:43:12.230Z,95248.00
2023-01-18T22:45:43.124Z,95177.03
2023-01-18T22:48:13.321Z,95141.41
2023-01-18T22:50:42.488Z,95224.38
2023-01-18T22:53:12.302Z,95247.72
2023-01-18T22:55:43.257Z,95252.16
2023-01-18T22:58:11.110Z,95215.41
2023-01-18T23:00:40.411Z,95254.97
2023-01-18T23:03:10.719Z,95264.75
2023-01-18T23:05:41.549Z,95247.69
2023-01-18T23:08:11.932Z,95248.16
2023-01-18T23:10:43.535Z,95266.50
2023-01-18T23:13:11.490Z,95252.75
2023-01-18T23:16:00.674Z,95268.38
2023-01-18T23:18:32.751Z,95235.88
2023-01-18T23:23:43.652Z,95269.09
2023-01-18T23:26:11.571Z,95267.69
2023-01-18T23:28:42.323Z,95238.91
2023-01-18T23:31:13.585Z,95267.25
2023-01-18T23:33:42.775Z,95287.44
2023-01-18T23:36:12.707Z,95289.97
2023-01-18T23:39:02.376Z,95129.00
2023-01-18T23:41:49.818Z,95290.75
2023-01-18T23:44:35.815Z,95293.16
2023-01-18T23:47:23.636Z,95293.16
2023-01-18T23:50:09.521Z,95297.84
2023-01-18T23:53:01.796Z,95302.78
2023-01-18T23:55:34.876Z,95241.34
2023-01-18T23:58:09.873Z,95309.69
